Time;durP1;ratioP1;P1;durP2;ratioP2;P2;SDS_P1;SDS_P2;PMS_P1;PMS_P2;Temp;Humidity;BMP_temperature;BMP_pressure;BME280_temperature;BME280_humidity;BME280_pressure;Samples;Min_cycle;Max_cycle;Signal;HPM_P1;HPM_P2
2022/11/07 00:01:34;;;;;;;14.65;4.32;;;;;;;8.92;100.00;98609.31;5074655;28;20453;-88
2022/11/07 00:04:01;;;;;;;12.90;3.60;;;;;;;9.22;100.00;98639.59;5072625;28;20037;-88
2022/11/07 00:06:28;;;;;;;10.48;3.30;;;;;;;9.17;100.00;98632.06;5061857;28;20755;-88
2022/11/07 00:08:57;;;;;;;10.85;3.10;;;;;;;9.18;100.00;98633.72;5067016;28;20135;-87
2022/11/07 00:11:24;;;;;;;10.55;2.72;;;;;;;9.04;100.00;98621.56;5066673;28;20086;-88
2022/11/07 00:13:50;;;;;;;7.22;2.67;;;;;;;9.05;100.00;98631.09;5057260;28;20049;-88
2022/11/07 00:16:17;;;;;;;7.22;2.40;;;;;;;8.92;100.00;98619.75;5065400;28;20052;-87
2022/11/07 00:18:44;;;;;;;7.80;2.55;;;;;;;8.71;100.00;98601.09;5061508;28;20049;-87
2022/11/07 00:21:11;;;;;;;6.93;2.53;;;;;;;8.83;100.00;98628.16;5069124;28;20056;-87
2022/11/07 00:23:41;;;;;;;8.93;2.67;;;;;;;8.79;100.00;98624.91;5071333;28;20060;-87
2022/11/07 00:26:11;;;;;;;8.68;2.67;;;;;;;8.87;100.00;98640.94;5068112;28;20092;-87
2022/11/07 00:28:40;;;;;;;8.43;2.30;;;;;;;8.88;100.00;98641.75;5071695;28;20048;-87
2022/11/07 00:31:09;;;;;;;8.65;2.85;;;;;;;8.80;100.00;98644.00;5067910;28;20482;-87
2022/11/07 00:33:36;;;;;;;9.43;2.90;;;;;;;8.87;100.00;98635.72;5070492;28;20060;-86
2022/11/07 00:36:03;;;;;;;7.63;2.75;;;;;;;8.66;100.00;98618.81;5070522;28;20048;-87
2022/11/07 00:38:31;;;;;;;8.75;2.55;;;;;;;8.57;100.00;98609.81;5053096;28;20041;-87
2022/11/07 00:41:03;;;;;;;11.05;2.58;;;;;;;8.78;100.00;98648.50;5062653;28;20045;-88
2022/11/07 00:43:30;;;;;;;10.30;2.90;;;;;;;8.68;100.00;98653.47;5067983;28;20052;-87
2022/11/07 00:46:03;;;;;;;6.55;2.78;;;;;;;8.51;100.00;98634.47;5067783;28;20302;-88
2022/11/07 00:48:30;;;;;;;13.10;3.10;;;;;;;8.22;100.00;98593.72;5053342;28;20052;-87
2022/11/07 00:51:04;;;;;;;9.40;3.25;;;;;;;8.56;100.00;98657.69;5064455;28;20064;-88
2022/11/07 00:53:31;;;;;;;9.75;2.83;;;;;;;8.53;100.00;98639.59;5067343;28;20049;-88
2022/11/07 00:56:02;;;;;;;10.02;2.97;;;;;;;8.61;100.00;98655.63;5062680;28;20662;-88
2022/11/07 00:58:28;;;;;;;6.80;2.33;;;;;;;8.58;100.00;98654.97;5064624;28;20065;-88
2022/11/07 01:00:55;;;;;;;10.27;3.22;;;;;;;8.50;100.00;98648.47;5068325;28;20057;-88
2022/11/07 01:06:08;;;;;;;8.55;2.38;;;;;;;8.55;100.00;98643.81;5057735;28;20429;-88
2022/11/07 01:08:34;;;;;;;8.60;2.72;;;;;;;8.54;100.00;98641.28;5062356;28;20114;-88
2022/11/07 01:11:05;;;;;;;8.95;3.13;;;;;;;8.64;100.00;98647.63;5069343;28;20102;-88
2022/11/07 01:13:32;;;;;;;8.27;2.47;;;;;;;8.53;100.00;98644.81;5070111;28;20052;-87
2022/11/07 01:15:59;;;;;;;9.85;3.05;;;;;;;8.51;100.00;98655.34;5052901;28;20045;-88
2022/11/07 01:18:26;;;;;;;11.25;2.70;;;;;;;8.53;100.00;98645.69;5067210;28;20063;-88
2022/11/07 01:20:53;;;;;;;11.38;2.80;;;;;;;8.53;100.00;98645.69;5066893;28;20075;-88
2022/11/07 01:23:21;;;;;;;9.05;2.58;;;;;;;8.45;100.00;98642.72;5069694;28;20040;-88
2022/11/07 01:25:48;;;;;;;9.80;2.22;;;;;;;8.51;100.00;98642.31;5069148;28;20449;-88
2022/11/07 01:28:15;;;;;;;7.80;2.60;;;;;;;8.43;100.00;98639.38;5068716;28;20052;-88
2022/11/07 01:30:43;;;;;;;10.55;2.60;;;;;;;8.42;100.00;98653.31;5070608;28;20048;-88
2022/11/07 01:33:11;;;;;;;10.35;3.38;;;;;;;8.44;100.00;98661.88;5056282;28;20044;-88
2022/11/07 01:35:39;;;;;;;11.25;2.88;;;;;;;8.50;100.00;98666.72;5066520;28;20047;-87
2022/11/07 01:38:06;;;;;;;12.38;3.33;;;;;;;8.44;100.00;98651.44;5069553;28;20409;-87
2022/11/07 01:41:19;;;;;;;7.35;2.53;;;;;;;8.48;100.00;98647.75;5069310;28;20106;-88
2022/11/07 01:43:19;;;;;;;8.27;3.00;;;;;;;8.45;100.00;98647.09;5064198;28;20060;-87
2022/11/07 01:45:46;;;;;;;7.75;2.63;;;;;;;8.54;100.00;98655.16;5051705;28;20142;-88
2022/11/07 01:48:13;;;;;;;8.43;2.78;;;;;;;8.54;100.00;98660.38;5062407;28;20472;-88
2022/11/07 01:50:39;;;;;;;10.05;2.83;;;;;;;8.63;100.00;98666.78;5059698;28;20049;-87
2022/11/07 01:53:06;;;;;;;13.23;3.20;;;;;;;8.63;100.00;98666.78;5062308;28;20177;-87
2022/11/07 01:55:34;;;;;;;10.73;3.08;;;;;;;8.64;100.00;98658.06;5057812;28;20040;-87
2022/11/07 01:58:06;;;;;;;9.93;2.70;;;;;;;8.97;100.00;98667.28;5069938;28;20052;-87
2022/11/07 02:00:34;;;;;;;13.02;2.95;;;;;;;8.86;100.00;98652.31;5070133;28;20045;-87
2022/11/07 02:03:11;;;;;;;8.90;2.58;;;;;;;9.04;100.00;98675.56;5063266;28;20052;-88
2022/11/07 02:06:08;;;;;;;9.18;2.42;;;;;;;8.99;100.00;98669.78;5072614;28;20072;-87
2022/11/07 02:08:37;;;;;;;9.15;2.97;;;;;;;8.84;100.00;98661.19;5072287;28;20059;-87
2022/11/07 02:11:05;;;;;;;8.95;2.60;;;;;;;8.85;100.00;98671.53;5068347;28;20044;-87
2022/11/07 02:13:32;;;;;;;12.88;3.30;;;;;;;8.70;100.00;98665.47;5072965;28;20431;-87
2022/11/07 02:16:04;;;;;;;10.13;3.40;;;;;;;8.72;100.00;98662.78;5059552;28;20067;-87
2022/11/07 02:18:35;;;;;;;10.03;3.40;;;;;;;8.67;100.00;98663.06;5073786;28;20048;-86
2022/11/07 02:21:32;;;;;;;12.88;3.25;;;;;;;8.81;100.00;98674.41;5072390;28;20973;-87
2022/11/07 02:24:08;;;;;;;10.60;3.45;;;;;;;8.74;100.00;98676.56;5047394;28;20057;-87
2022/11/07 02:26:37;;;;;;;9.48;3.03;;;;;;;8.66;100.00;98671.84;5055904;28;20068;-87
2022/11/07 02:29:07;;;;;;;9.95;2.80;;;;;;;9.15;100.00;98672.25;5052779;28;20059;-87
2022/11/07 02:31:34;;;;;;;8.50;2.65;;;;;;;9.46;100.00;98676.31;5072139;28;20523;-88
2022/11/07 02:34:01;;;;;;;9.80;3.20;;;;;;;9.51;100.00;98676.84;5072726;28;20064;-87
2022/11/07 02:36:28;;;;;;;6.80;2.35;;;;;;;9.35;100.00;98661.34;5068225;28;20051;-87
2022/11/07 02:38:57;;;;;;;8.20;2.58;;;;;;;9.43;100.00;98666.06;5066828;28;20131;-87
2022/11/07 02:41:28;;;;;;;6.47;2.10;;;;;;;9.55;100.00;98678.31;5068151;28;20457;-87
2022/11/07 02:44:03;;;;;;;8.00;2.38;;;;;;;9.47;100.00;98667.53;5060452;28;20395;-87
2022/11/07 02:46:31;;;;;;;7.40;2.97;;;;;;;9.49;100.00;98673.47;5058550;28;20048;-86
2022/11/07 02:48:59;;;;;;;9.23;2.60;;;;;;;9.37;100.00;98672.53;5055070;28;20052;-88
2022/11/07 02:51:27;;;;;;;7.43;2.85;;;;;;;9.02;100.00;98667.00;5072624;28;20123;-88
2022/11/07 02:53:53;;;;;;;10.02;3.17;;;;;;;9.04;100.00;98663.31;5069079;28;20044;-88
2022/11/07 02:56:21;;;;;;;8.32;2.75;;;;;;;9.27;100.00;98680.13;5063316;28;20098;-87
2022/11/07 02:58:48;;;;;;;9.45;3.60;;;;;;;9.39;100.00;98669.81;5072888;28;20390;-87
2022/11/07 03:01:15;;;;;;;10.73;2.88;;;;;;;9.35;100.00;98669.19;5062613;28;20079;-88
2022/11/07 03:03:44;;;;;;;7.60;2.53;;;;;;;9.44;100.00;98676.41;5063930;28;20506;-87
2022/11/07 03:06:15;;;;;;;13.15;3.88;;;;;;;9.30;100.00;98676.47;5056906;28;20089;-87
2022/11/07 03:08:42;;;;;;;9.07;2.53;;;;;;;9.21;100.00;98671.88;5071346;28;20052;-86
2022/11/07 03:11:10;;;;;;;7.63;3.47;;;;;;;9.35;100.00;98663.97;5069503;28;20445;-88
2022/11/07 03:13:37;;;;;;;8.18;2.60;;;;;;;9.38;100.00;98668.97;5071859;28;20780;-88
2022/11/07 03:16:08;;;;;;;12.10;3.28;;;;;;;9.33;100.00;98660.63;5066783;28;20036;-88
2022/11/07 03:18:35;;;;;;;10.27;2.75;;;;;;;9.22;100.00;98645.63;5064030;28;20056;-88
2022/11/07 03:21:03;;;;;;;10.65;2.75;;;;;;;9.12;100.00;98631.53;5070187;28;20055;-87
2022/11/07 03:23:30;;;;;;;11.85;2.78;;;;;;;9.24;100.00;98633.34;5071707;28;20162;-87
2022/11/07 03:25:57;;;;;;;13.30;3.38;;;;;;;9.43;100.00;98634.72;5069703;28;20586;-87
2022/11/07 03:28:24;;;;;;;12.05;3.08;;;;;;;9.48;100.00;98643.09;5051840;28;20067;-87
2022/11/07 03:30:51;;;;;;;10.48;3.53;;;;;;;9.47;100.00;98642.25;5066446;28;20452;-88
2022/11/07 03:33:18;;;;;;;10.50;3.35;;;;;;;9.52;100.00;98665.44;5072849;28;20174;-88
2022/11/07 03:35:45;;;;;;;8.88;3.42;;;;;;;9.65;100.00;98682.00;5073181;28;20048;-88
2022/11/07 03:38:12;;;;;;;11.98;3.20;;;;;;;9.61;100.00;98664.00;5071733;28;20076;-88
2022/11/07 03:40:38;;;;;;;13.32;3.20;;;;;;;9.56;100.00;98663.47;5066513;28;20143;-87
2022/11/07 03:43:05;;;;;;;12.98;3.97;;;;;;;9.48;100.00;98659.59;5067845;28;20107;-87
2022/11/07 03:45:32;;;;;;;10.93;3.25;;;;;;;9.41;100.00;98662.72;5056266;28;20048;-87
2022/11/07 03:47:58;;;;;;;10.18;3.65;;;;;;;9.32;100.00;98661.56;5062309;28;20052;-87
2022/11/07 03:50:25;;;;;;;11.10;3.80;;;;;;;9.48;100.00;98667.44;5066754;28;20118;-87
2022/11/07 03:52:52;;;;;;;10.23;2.95;;;;;;;9.52;100.00;98659.41;5067737;28;20045;-87
2022/11/07 03:55:19;;;;;;;11.52;2.85;;;;;;;9.01;100.00;98673.13;5056845;28;20051;-88
2022/11/07 03:57:46;;;;;;;10.65;2.50;;;;;;;8.61;100.00;98660.00;5062678;28;20048;-87
2022/11/07 04:00:14;;;;;;;10.10;2.83;;;;;;;8.47;100.00;98666.09;5063858;28;20779;-87
2022/11/07 04:02:42;;;;;;;7.93;2.35;;;;;;;8.49;100.00;98667.66;5068257;28;20414;-87
2022/11/07 04:05:10;;;;;;;12.93;4.72;;;;;;;8.50;100.00;98665.91;5070773;28;20040;-87
2022/11/07 04:07:37;;;;;;;10.63;2.63;;;;;;;8.59;100.00;98659.25;5069876;28;20056;-88
2022/11/07 04:10:05;;;;;;;8.10;2.65;;;;;;;8.52;100.00;98649.22;5070592;28;20071;-87
2022/11/07 04:18:02;;;;;;;8.60;2.10;;;;;;;8.54;100.00;98651.72;5059211;28;20101;-87
2022/11/07 04:20:29;;;;;;;8.80;2.80;;;;;;;8.42;100.00;98652.47;5061483;28;20402;-87
2022/11/07 04:22:55;;;;;;;11.13;2.63;;;;;;;8.36;100.00;98641.47;5071941;28;20048;-86
2022/11/07 04:27:41;;;;;;;8.55;2.03;;;;;;;8.28;100.00;98648.91;5058304;28;20094;-87
2022/11/07 04:28:09;;;;;;;8.23;2.65;;;;;;;8.21;100.00;98644.19;5052089;28;20045;-87
2022/11/07 04:30:35;;;;;;;10.57;3.10;;;;;;;8.07;100.00;98645.03;5068795;28;20403;-87
2022/11/07 04:33:02;;;;;;;11.35;2.75;;;;;;;8.15;100.00;98645.41;5069265;28;20040;-87
2022/11/07 04:35:31;;;;;;;11.05;2.45;;;;;;;8.33;100.00;98662.50;5071280;28;20040;-87
2022/11/07 04:37:59;;;;;;;9.57;2.50;;;;;;;8.40;100.00;98660.38;5067832;28;20097;-88
2022/11/07 04:40:28;;;;;;;12.80;2.83;;;;;;;8.32;100.00;98646.97;5060616;28;20055;-87
2022/11/07 04:42:55;;;;;;;9.50;2.78;;;;;;;8.25;100.00;98662.16;5070749;28;21106;-87
2022/11/07 04:45:22;;;;;;;7.85;2.42;;;;;;;8.43;100.00;98657.63;5070712;28;20403;-87
2022/11/07 04:47:49;;;;;;;8.05;2.50;;;;;;;8.41;100.00;98650.78;5062763;28;20107;-87
2022/11/07 04:50:17;;;;;;;7.25;2.20;;;;;;;8.54;100.00;98675.19;5058943;28;20470;-87
2022/11/07 04:52:45;;;;;;;9.65;2.60;;;;;;;8.46;100.00;98669.63;5054412;28;20060;-87
2022/11/07 04:55:18;;;;;;;17.70;3.72;;;;;;;8.39;100.00;98673.50;5064231;28;20128;-87
2022/11/07 04:57:45;;;;;;;14.82;4.00;;;;;;;8.14;100.00;98673.25;5050834;28;20056;-87
2022/11/07 05:00:12;;;;;;;14.07;2.90;;;;;;;8.36;100.00;98680.59;5055599;28;20049;-87
2022/11/07 05:02:39;;;;;;;13.05;2.75;;;;;;;8.41;100.00;98676.84;5051931;28;20045;-87
2022/11/07 05:05:06;;;;;;;8.18;2.60;;;;;;;8.51;100.00;98697.09;5057453;28;20060;-87
2022/11/07 05:07:33;;;;;;;8.10;2.65;;;;;;;8.49;100.00;98695.50;5066335;28;20053;-87
2022/11/07 05:09:59;;;;;;;14.45;3.03;;;;;;;8.52;100.00;98708.38;5065169;28;20053;-88
2022/11/07 05:12:26;;;;;;;15.68;3.30;;;;;;;8.74;100.00;98707.88;5076155;28;20056;-87
2022/11/07 05:14:56;;;;;;;11.57;3.15;;;;;;;8.62;100.00;98699.03;5061296;28;20490;-87
2022/11/07 05:17:23;;;;;;;13.45;3.40;;;;;;;8.78;100.00;98705.91;5058125;28;20045;-87
2022/11/07 05:19:53;;;;;;;17.80;3.40;;;;;;;8.84;100.00;98697.72;5055123;28;20466;-86
2022/11/07 05:25:06;;;;;;;9.88;2.85;;;;;;;8.98;100.00;98704.63;5063185;28;20426;-87
2022/11/07 05:27:32;;;;;;;15.45;3.15;;;;;;;9.05;100.00;98705.97;5064645;28;20091;-87
2022/11/07 05:29:59;;;;;;;11.13;2.40;;;;;;;9.04;100.00;98712.94;5065557;28;20097;-87
2022/11/07 05:32:26;;;;;;;9.38;2.35;;;;;;;9.10;100.00;98725.59;5057730;28;20707;-87
2022/11/07 05:34:53;;;;;;;6.10;2.10;;;;;;;9.05;100.00;98721.63;5061602;28;20560;-87
2022/11/07 05:37:20;;;;;;;8.63;2.03;;;;;;;8.84;100.00;98715.97;5063801;28;20061;-87
2022/11/07 05:39:46;;;;;;;8.60;2.10;;;;;;;8.67;100.00;98709.19;5063820;28;20467;-87
2022/11/07 05:42:20;;;;;;;13.63;3.72;;;;;;;8.81;100.00;98726.59;5062997;28;20094;-88
2022/11/07 05:44:47;;;;;;;7.22;1.85;;;;;;;8.82;100.00;98717.81;5067323;28;20049;-86
2022/11/07 05:47:14;;;;;;;6.40;2.00;;;;;;;8.89;100.00;98725.19;5066220;28;20041;-87
2022/11/07 05:49:40;;;;;;;11.35;2.65;;;;;;;8.86;100.00;98725.38;5061047;28;20040;-87
2022/11/07 05:52:07;;;;;;;6.95;1.95;;;;;;;8.98;100.00;98718.56;5061333;28;20052;-87
2022/11/07 05:54:34;;;;;;;8.25;1.85;;;;;;;9.04;100.00;98739.03;5063756;28;20064;-87
2022/11/07 05:57:01;;;;;;;7.10;1.90;;;;;;;8.91;100.00;98723.31;5069045;28;20056;-87
2022/11/07 05:59:28;;;;;;;6.72;2.08;;;;;;;8.46;100.00;98667.84;5063981;28;20410;-87
2022/11/07 06:01:54;;;;;;;10.10;2.40;;;;;;;8.74;100.00;98733.97;5064258;28;20049;-87
2022/11/07 06:04:21;;;;;;;6.47;1.90;;;;;;;8.57;100.00;98721.97;5066132;28;20383;-88
2022/11/07 06:06:48;;;;;;;9.50;3.15;;;;;;;8.51;100.00;98723.16;5070189;28;20118;-88
2022/11/07 06:09:15;;;;;;;14.02;2.17;;;;;;;8.45;100.00;98722.72;5079151;28;20049;-86
2022/11/07 06:11:42;;;;;;;8.27;2.10;;;;;;;8.35;100.00;98727.63;5064883;28;20048;-87
2022/11/07 06:14:08;;;;;;;5.50;1.73;;;;;;;8.25;100.00;98696.06;5063776;28;20052;-87
2022/11/07 06:16:38;;;;;;;7.28;1.95;;;;;;;8.33;100.00;98735.53;5062497;28;20041;-87
2022/11/07 06:19:05;;;;;;;7.47;1.90;;;;;;;8.23;100.00;98725.75;5072078;28;20113;-87
2022/11/07 06:21:33;;;;;;;6.53;1.88;;;;;;;8.16;100.00;98733.09;5069602;28;20113;-87
2022/11/07 06:24:00;;;;;;;11.90;3.13;;;;;;;8.11;100.00;98712.53;5063660;28;20052;-88
2022/11/07 06:26:27;;;;;;;8.82;1.90;;;;;;;8.12;100.00;98716.78;5059027;28;20044;-88
2022/11/07 06:28:53;;;;;;;8.88;2.05;;;;;;;8.11;100.00;98720.34;5068782;28;20056;-89
2022/11/07 06:31:21;;;;;;;6.68;1.60;;;;;;;8.10;100.00;98731.69;5056847;28;20059;-88
2022/11/07 06:33:51;;;;;;;9.90;2.00;;;;;;;8.06;100.00;98743.22;5064049;28;20049;-88
2022/11/07 06:36:18;;;;;;;9.38;1.73;;;;;;;7.96;100.00;98726.47;5059984;28;20087;-87
2022/11/07 06:38:45;;;;;;;7.40;2.22;;;;;;;7.91;100.00;98739.75;5063170;28;20044;-87
2022/11/07 06:41:13;;;;;;;8.18;1.80;;;;;;;7.97;100.00;98738.56;5074396;28;20098;-88
2022/11/07 06:43:40;;;;;;;8.35;2.15;;;;;;;7.95;100.00;98749.09;5061097;28;20053;-87
2022/11/07 06:46:10;;;;;;;7.03;2.00;;;;;;;7.94;100.00;98752.59;5061216;28;20049;-87
2022/11/07 06:48:37;;;;;;;5.68;1.70;;;;;;;7.77;100.00;98726.69;5067764;28;20059;-89
2022/11/07 06:51:05;;;;;;;7.75;1.95;;;;;;;7.94;100.00;98759.59;5059540;28;20053;-89
2022/11/07 06:53:32;;;;;;;7.40;2.00;;;;;;;7.58;100.00;98698.28;5058686;28;20102;-89
2022/11/07 06:56:03;;;;;;;5.97;1.60;;;;;;;7.88;100.00;98755.59;5060495;28;20824;-89
2022/11/07 06:58:30;;;;;;;6.95;1.77;;;;;;;7.83;100.00;98741.16;5064882;28;20044;-89
2022/11/07 07:01:01;;;;;;;5.70;2.10;;;;;;;7.84;100.00;98753.22;5065524;28;20401;-89
2022/11/07 07:03:29;;;;;;;6.20;1.67;;;;;;;7.55;100.00;98719.28;5074091;28;20135;-89
2022/11/07 07:06:01;;;;;;;7.53;2.10;;;;;;;7.50;100.00;98719.53;5060550;28;20670;-89
2022/11/07 07:08:28;;;;;;;7.40;2.10;;;;;;;7.57;100.00;98731.28;5064708;28;20064;-89
2022/11/07 07:10:55;;;;;;;5.97;1.88;;;;;;;7.67;100.00;98759.44;5060771;28;20481;-90
2022/11/07 07:13:21;;;;;;;5.93;1.90;;;;;;;7.54;100.00;98741.91;5072372;28;20131;-90
2022/11/07 07:15:56;;;;;;;5.82;1.80;;;;;;;7.59;100.00;98763.28;5061476;28;20398;-89
2022/11/07 07:18:24;;;;;;;4.95;1.95;;;;;;;7.53;100.00;98771.44;5064633;28;20040;-89
2022/11/07 07:20:54;;;;;;;6.38;1.75;;;;;;;7.62;100.00;98777.06;5064286;28;20049;-89
2022/11/07 07:23:21;;;;;;;9.65;2.38;;;;;;;7.34;100.00;98740.41;5061352;28;20107;-90
2022/11/07 07:25:48;;;;;;;5.78;1.90;;;;;;;7.57;100.00;98769.50;5055989;28;20051;-89
2022/11/07 07:28:14;;;;;;;6.28;2.03;;;;;;;7.42;100.00;98747.78;5072813;28;20676;-90
2022/11/07 07:30:41;;;;;;;5.93;1.88;;;;;;;7.46;100.00;98748.47;5068707;28;20053;-90
2022/11/07 07:33:15;;;;;;;10.20;2.10;;;;;;;7.55;100.00;98740.13;5060913;28;20136;-89
2022/11/07 07:35:43;;;;;;;5.60;1.55;;;;;;;7.46;100.00;98738.03;5068555;28;20072;-89
2022/11/07 07:38:12;;;;;;;5.75;1.98;;;;;;;7.52;100.00;98748.94;5059308;28;20053;-89
2022/11/07 07:40:39;;;;;;;7.65;2.22;;;;;;;7.36;100.00;98751.56;5059093;28;20059;-90
2022/11/07 07:43:06;;;;;;;4.88;1.80;;;;;;;7.25;100.00;98750.50;5062433;28;20484;-89
2022/11/07 07:45:33;;;;;;;6.65;1.90;;;;;;;7.38;100.00;98780.97;5062011;28;20045;-90
2022/11/07 07:48:01;;;;;;;5.25;1.67;;;;;;;7.29;100.00;98773.66;5061895;28;20126;-89
2022/11/07 07:50:28;;;;;;;7.78;2.08;;;;;;;7.09;100.00;98758.31;5067581;28;20045;-90
2022/11/07 07:52:56;;;;;;;7.07;2.05;;;;;;;7.23;100.00;98782.66;5059749;28;20399;-90
2022/11/07 07:55:23;;;;;;;5.90;2.03;;;;;;;7.28;100.00;98777.19;5060061;28;20115;-90
2022/11/07 07:57:50;;;;;;;5.55;2.10;;;;;;;7.34;100.00;98769.03;5061617;28;20041;-90
2022/11/07 08:00:17;;;;;;;6.15;1.95;;;;;;;7.51;100.00;98786.34;5067882;28;20041;-90
2022/11/07 08:02:44;;;;;;;10.73;2.53;;;;;;;7.49;100.00;98782.97;5069414;28;20057;-89
2022/11/07 08:05:13;;;;;;;10.93;2.45;;;;;;;7.58;100.00;98766.00;5085966;28;20044;-89
2022/11/07 08:07:53;;;;;;;9.40;2.50;;;;;;;7.42;100.00;98719.16;5059605;28;20075;-88
2022/11/07 08:10:34;;;;;;;5.40;1.95;;;;;;;7.68;100.00;98756.72;5080389;28;20051;-89
2022/11/07 08:13:15;;;;;;;12.23;2.58;;;;;;;7.61;100.00;98752.78;5083710;28;20066;-89
2022/11/07 08:15:56;;;;;;;6.95;2.03;;;;;;;7.78;100.00;98783.91;5087288;28;20060;-88
2022/11/07 08:18:23;;;;;;;5.90;1.88;;;;;;;7.65;100.00;98749.09;5079423;28;20052;-90
2022/11/07 08:21:04;;;;;;;7.13;1.90;;;;;;;7.71;100.00;98751.31;5081388;28;20055;-89
2022/11/07 08:23:46;;;;;;;5.35;1.90;;;;;;;7.76;100.00;98754.50;5081134;28;20056;-89
2022/11/07 08:26:16;;;;;;;6.35;2.20;;;;;;;7.75;100.00;98747.63;5081606;28;20181;-90
2022/11/07 08:28:56;;;;;;;8.25;2.25;;;;;;;7.72;100.00;98711.34;5082823;28;20044;-89
2022/11/07 08:31:38;;;;;;;9.18;2.70;;;;;;;8.07;100.00;98772.75;5080262;28;20092;-89
2022/11/07 08:34:18;;;;;;;9.10;2.40;;;;;;;8.02;100.00;98741.75;5075880;28;20045;-89
2022/11/07 08:36:45;;;;;;;6.50;2.35;;;;;;;8.05;100.00;98751.13;5081085;28;20052;-89
2022/11/07 08:39:12;;;;;;;4.93;1.70;;;;;;;8.02;100.00;98749.56;5080503;28;20131;-89
2022/11/07 08:41:40;;;;;;;7.60;1.90;;;;;;;8.07;100.00;98744.06;5079776;28;20420;-89
2022/11/07 08:44:10;;;;;;;7.93;1.92;;;;;;;7.98;100.00;98717.63;5076287;28;20123;-89
2022/11/07 08:46:37;;;;;;;7.97;2.08;;;;;;;8.17;100.00;98734.78;5081558;28;20420;-89
2022/11/07 08:49:06;;;;;;;7.25;1.73;;;;;;;8.24;100.00;98730.88;5083299;28;20080;-89
2022/11/07 08:51:34;;;;;;;10.98;1.98;;;;;;;8.22;100.00;98711.88;5082251;28;20371;-90
2022/11/07 08:54:14;;;;;;;7.57;2.17;;;;;;;8.29;100.00;98723.63;5066846;28;20045;-89
2022/11/07 08:56:55;;;;;;;9.77;2.65;;;;;;;8.42;100.00;98721.13;5075994;28;20097;-89
2022/11/07 08:59:35;;;;;;;3.80;1.40;;;;;;;8.48;100.00;98718.16;5069437;28;20055;-89
2022/11/07 09:02:03;;;;;;;7.72;1.98;;;;;;;8.80;100.00;98731.00;5068573;28;20057;-88
2022/11/07 09:04:44;;;;;;;11.15;2.33;;;;;;;9.13;100.00;98748.88;5074726;28;20491;-90
2022/11/07 09:07:25;;;;;;;14.00;2.17;;;;;;;9.08;100.00;98697.91;5079211;28;20036;-89
2022/11/07 09:10:02;;;;;;;12.30;2.90;;;;;;;9.47;100.00;98732.84;5084227;28;20044;-90
2022/11/07 09:12:44;;;;;;;9.77;2.45;;;;;;;9.52;100.00;98712.47;5054357;28;20113;-89
2022/11/07 09:15:25;;;;;;;11.65;2.67;;;;;;;9.57;100.00;98713.00;5082125;28;20113;-90
2022/11/07 09:17:52;;;;;;;13.48;2.80;;;;;;;9.81;100.00;98712.31;5085337;28;20040;-89
2022/11/07 09:20:33;;;;;;;15.43;3.60;;;;;;;9.84;100.00;98704.28;5071267;28;20049;-90
2022/11/07 09:23:03;;;;;;;14.07;3.30;;;;;;;9.89;100.00;98723.09;5072390;28;20045;-89
2022/11/07 09:25:44;;;;;;;21.13;3.00;;;;;;;10.28;100.00;98744.88;5064895;28;20056;-89
2022/11/07 09:28:15;;;;;;;12.30;3.20;;;;;;;10.40;100.00;98751.09;5072335;28;20044;-89
2022/11/07 09:30:42;;;;;;;18.52;2.97;;;;;;;10.23;100.00;98732.16;5065012;28;20055;-89
2022/11/07 09:33:09;;;;;;;19.52;4.15;;;;;;;10.26;100.00;98723.25;5061935;28;20048;-88
2022/11/07 09:35:36;;;;;;;21.83;4.53;;;;;;;10.51;100.00;98748.56;5065248;28;20052;-89
2022/11/07 09:38:03;;;;;;;15.30;2.92;;;;;;;10.68;100.00;98744.81;5063529;28;20055;-89
2022/11/07 09:41:05;;;;;;;18.02;3.45;;;;;;;10.64;100.00;98743.31;5071793;28;20048;-88
2022/11/07 09:43:55;;;;;;;19.50;6.45;;;;;;;10.81;100.00;98727.28;5025574;28;20057;-87
2022/11/07 09:46:59;;;;;;;13.93;3.53;;;;;;;10.77;100.00;98738.09;5077929;28;20044;-89
2022/11/07 09:49:42;;;;;;;20.38;4.95;;;;;;;10.52;100.00;98720.66;5077539;28;20445;-90
2022/11/07 09:52:42;;;;;;;11.48;3.58;;;;;;;10.86;100.00;98736.59;5074188;28;20053;-89
2022/11/07 09:55:21;;;;;;;19.13;3.80;;;;;;;10.88;100.00;98737.34;5060530;28;20065;-88
2022/11/07 09:57:53;;;;;;;14.80;3.20;;;;;;;10.70;100.00;98695.78;5067981;28;20052;-89
2022/11/07 10:00:21;;;;;;;14.40;2.67;;;;;;;10.87;100.00;98725.16;5077957;28;20048;-88
2022/11/07 10:02:53;;;;;;;30.63;5.05;;;;;;;10.81;100.00;98711.56;5078533;28;20049;-89
2022/11/07 10:05:45;;;;;;;19.00;4.68;;;;;;;10.82;100.00;98741.22;5077676;28;20060;-88
2022/11/07 10:08:18;;;;;;;20.90;4.15;;;;;;;10.73;100.00;98750.56;5067635;28;20049;-89
2022/11/07 10:11:20;;;;;;;11.75;3.22;;;;;;;10.84;100.00;98728.84;5077611;28;20078;-89
2022/11/07 10:14:00;;;;;;;25.63;4.43;;;;;;;10.88;100.00;98747.81;5065252;28;20049;-89
2022/11/07 10:16:46;;;;;;;32.55;5.50;;;;;;;10.90;100.00;98746.75;5071614;28;20055;-89
2022/11/07 10:19:25;;;;;;;20.58;3.95;;;;;;;10.78;100.00;98764.16;5082745;28;20052;-90
2022/11/07 10:22:05;;;;;;;17.08;3.33;;;;;;;10.88;100.00;98751.25;5074502;28;20048;-90
2022/11/07 10:24:57;;;;;;;21.60;4.40;;;;;;;11.09;100.00;98743.66;5084767;28;20090;-90
2022/11/07 10:27:26;;;;;;;19.60;4.30;;;;;;;10.79;100.00;98710.03;5083191;28;20045;-90
2022/11/07 10:29:54;;;;;;;24.45;4.32;;;;;;;10.83;100.00;98717.53;5066247;28;20049;-89
2022/11/07 10:32:58;;;;;;;19.48;4.20;;;;;;;10.96;100.00;98743.69;5077835;28;20191;-89
2022/11/07 10:35:38;;;;;;;;;;;;;;;11.02;100.00;98751.09;5073616;28;20094;-89
2022/11/07 10:38:39;;;;;;;17.65;3.50;;;;;;;10.89;100.00;98755.56;5083933;28;19924;-90
2022/11/07 10:41:26;;;;;;;21.20;3.25;;;;;;;10.92;100.00;98755.31;5072850;28;20052;-90
2022/11/07 10:44:01;;;;;;;20.23;3.72;;;;;;;11.05;100.00;98752.69;5083393;28;20067;-89
2022/11/07 10:46:39;;;;;;;22.23;5.47;;;;;;;11.15;100.00;98752.84;5084310;28;20037;-90
2022/11/07 10:52:40;;;;;;;17.45;2.92;;;;;;;10.55;100.00;98691.63;5087280;28;20052;-89
2022/11/07 10:55:15;;;;;;;12.10;3.22;;;;;;;11.02;100.00;98751.09;5086590;28;20049;-89
2022/11/07 10:57:48;;;;;;;21.08;3.03;;;;;;;10.80;100.00;98715.16;5080694;28;20045;-88
2022/11/07 11:00:26;;;;;;;16.88;3.33;;;;;;;11.10;100.00;98752.34;5079866;28;20056;-90
2022/11/07 11:02:56;;;;;;;17.65;3.03;;;;;;;11.23;100.00;98718.25;5085328;28;20375;-89
2022/11/07 11:05:29;;;;;;;14.60;4.15;;;;;;;11.23;100.00;98736.59;5083928;28;20446;-90
2022/11/07 11:08:06;;;;;;;;;;;;;;;11.12;100.00;98734.72;5084210;28;20494;-91
2022/11/07 11:10:38;;;;;;;18.63;3.50;;;;;;;10.90;100.00;98702.22;5082606;28;19999;-90
2022/11/07 11:13:30;;;;;;;19.23;3.65;;;;;;;11.19;100.00;98735.97;5057118;28;20049;-90
2022/11/07 11:16:20;;;;;;;13.07;2.80;;;;;;;10.97;100.00;98710.50;5062305;28;20053;-91
2022/11/07 11:18:57;;;;;;;9.68;2.15;;;;;;;11.19;100.00;98728.09;5075304;28;20037;-89
2022/11/07 11:21:24;;;;;;;10.68;2.35;;;;;;;10.96;100.00;98673.00;5068244;28;20044;-91
2022/11/07 11:23:53;;;;;;;13.35;3.63;;;;;;;10.92;100.00;98658.44;5084834;28;20064;-89
2022/11/07 11:26:30;;;;;;;8.52;2.15;;;;;;;11.08;100.00;98694.81;5084567;28;20071;-89
2022/11/07 11:29:13;;;;;;;14.10;2.45;;;;;;;10.86;100.00;98679.84;5071631;28;20489;-88
2022/11/07 11:31:48;;;;;;;17.55;2.38;;;;;;;10.98;100.00;98670.28;5077640;28;20059;-90
2022/11/07 11:34:18;;;;;;;16.77;2.72;;;;;;;11.26;100.00;98708.41;5088172;28;20053;-89
2022/11/07 11:37:26;;;;;;;14.23;2.65;;;;;;;11.32;100.00;98701.88;5078690;28;20060;-91
2022/11/07 11:40:01;;;;;;;13.60;3.25;;;;;;;11.47;100.00;98705.13;5081285;28;20053;-91
2022/11/07 11:42:53;;;;;;;11.30;2.50;;;;;;;11.54;100.00;98698.50;5084394;28;20048;-89
2022/11/07 11:45:30;;;;;;;18.80;3.50;;;;;;;11.49;100.00;98692.75;5073571;28;20045;-90
2022/11/07 11:48:09;;;;;;;17.30;3.30;;;;;;;11.49;100.00;98674.41;5085071;28;20039;-90
2022/11/07 11:50:47;;;;;;;21.92;3.67;;;;;;;11.27;100.00;98628.03;5094245;28;20056;-90
2022/11/07 11:53:17;;;;;;;23.85;4.95;;;;;;;11.08;100.00;98613.63;5085630;28;20494;-90
2022/11/07 11:55:59;;;;;;;20.10;4.60;;;;;;;11.48;100.00;98664.91;5085849;28;20056;-89
2022/11/07 11:58:55;;;;;;;21.30;4.60;;;;;;;11.39;100.00;98638.41;5085795;28;20045;-88
2022/11/07 12:01:59;;;;;;;15.32;3.60;;;;;;;11.79;100.00;98671.28;5083667;28;20064;-90
2022/11/07 12:04:26;;;;;;;22.15;3.90;;;;;;;11.66;100.00;98671.38;5092690;28;20066;-89